Terminal Aerodrome Forecast
Issued by NWS

Home | Current Version | Previous Version | Text Only | Print | Product List | Glossary On
Versions: 1 2 3 4 5 6 7 8 9 10 11 12 13 14 15 16 17 18 19 20 21 22
000
FTUS43 KDVN 181700
TAFBRL
TAF
KBRL 181720Z 1818/1918 18006KT P6SM SCT016
     FM190300 20004KT 5SM BR BKN200 PROB30 1909/1913 3SM TSRA BR
      BKN025CB
     FM191300 23005KT 6SM BR VCSH BKN040=

USA.gov is the U.S. government's official web portal to all federal, state and local government web resources and services.